createdAt,value
2023-03-06T00:00:07.975Z,8.81
2023-03-06T00:01:10.448Z,4.24
2023-03-06T00:02:12.848Z,6.99
2023-03-06T00:03:15.288Z,4.28
2023-03-06T00:04:17.812Z,5.05
2023-03-06T00:05:20.406Z,5.42
2023-03-06T00:06:22.848Z,6.80
2023-03-06T00:07:25.350Z,5.64
2023-03-06T00:08:27.840Z,6.67
2023-03-06T00:09:30.394Z,7.22
2023-03-06T00:10:32.823Z,4.31
2023-03-06T00:11:35.337Z,5.65
2023-03-06T00:12:37.809Z,4.21
2023-03-06T00:13:40.267Z,5.52
2023-03-06T00:14:42.764Z,7.02
2023-03-06T00:15:45.278Z,5.16
2023-03-06T00:16:48.531Z,4.71
2023-03-06T00:17:51.252Z,5.78
2023-03-06T00:18:53.553Z,4.52
2023-03-06T00:19:55.777Z,6.06
2023-03-06T00:20:57.955Z,6.69
2023-03-06T00:22:00.162Z,5.52
2023-03-06T00:23:02.346Z,7.12
2023-03-06T00:24:04.665Z,4.51
2023-03-06T00:25:06.868Z,7.12
2023-03-06T00:26:09.101Z,5.36
2023-03-06T00:27:11.257Z,6.60
2023-03-06T00:28:13.480Z,4.06
2023-03-06T00:29:15.802Z,3.83
2023-03-06T00:30:18.015Z,5.92
2023-03-06T00:31:20.250Z,5.97
2023-03-06T00:32:22.575Z,4.01
2023-03-06T00:33:25.082Z,4.19
2023-03-06T00:34:27.704Z,4.28
2023-03-06T00:35:30.194Z,4.92
2023-03-06T00:36:32.648Z,7.68
2023-03-06T00:37:35.182Z,4.10
2023-03-06T00:38:37.581Z,5.28
2023-03-06T00:39:40.256Z,6.26
2023-03-06T00:40:42.840Z,4.85
2023-03-06T00:41:46.982Z,5.86
2023-03-06T00:42:49.747Z,7.71
2023-03-06T00:43:52.192Z,10.06
2023-03-06T00:44:54.604Z,8.64
2023-03-06T00:45:57.140Z,6.20
2023-03-06T00:46:59.771Z,4.42
2023-03-06T00:48:02.418Z,5.03
2023-03-06T00:49:04.889Z,3.49
2023-03-06T00:50:07.355Z,7.50
2023-03-06T00:51:11.479Z,4.98
2023-03-06T00:52:13.642Z,6.02
2023-03-06T00:53:16.065Z,6.69
2023-03-06T00:54:18.406Z,6.25
2023-03-06T00:55:21.311Z,6.49
2023-03-06T00:56:23.812Z,4.80
2023-03-06T00:57:26.238Z,5.08
2023-03-06T00:58:28.618Z,6.40
2023-03-06T00:59:31.069Z,9.02
2023-03-06T01:00:33.585Z,6.86
2023-03-06T01:01:36.040Z,5.90
2023-03-06T01:02:38.643Z,5.33
2023-03-06T01:03:41.103Z,4.75
2023-03-06T01:04:43.476Z,7.87
2023-03-06T01:05:46.132Z,4.28
2023-03-06T01:06:48.582Z,4.08
2023-03-06T01:07:50.821Z,6.47
2023-03-06T01:08:53.047Z,6.58
2023-03-06T01:09:55.560Z,3.80
2023-03-06T01:10:57.973Z,3.72
2023-03-06T01:12:00.477Z,5.84
2023-03-06T01:13:02.679Z,4.85
2023-03-06T01:14:04.848Z,5.14
2023-03-06T01:15:07.023Z,3.27
2023-03-06T01:16:09.510Z,4.52
2023-03-06T01:17:12.015Z,4.54
2023-03-06T01:18:14.472Z,5.34
2023-03-06T01:19:17.070Z,4.88
2023-03-06T01:20:19.549Z,6.97
2023-03-06T01:21:22.090Z,5.11
2023-03-06T01:22:24.510Z,5.83
2023-03-06T01:23:29.999Z,8.24
2023-03-06T01:24:32.387Z,4.04
2023-03-06T01:25:34.788Z,4.49
2023-03-06T01:26:37.346Z,4.08
2023-03-06T01:27:39.722Z,4.49
2023-03-06T01:28:42.235Z,8.75
2023-03-06T01:29:44.718Z,10.39
2023-03-06T01:30:47.256Z,4.35
2023-03-06T01:31:49.841Z,5.48
2023-03-06T01:32:52.265Z,6.73
2023-03-06T01:33:54.707Z,4.69
2023-03-06T01:34:57.218Z,3.37
2023-03-06T01:35:59.701Z,4.24
2023-03-06T01:37:02.358Z,4.62
2023-03-06T01:38:04.762Z,6.12
2023-03-06T01:39:07.262Z,4.45
2023-03-06T01:40:09.827Z,3.47
2023-03-06T01:41:12.330Z,5.58
2023-03-06T01:42:14.852Z,5.65
2023-03-06T01:43:17.061Z,3.40
2023-03-06T01:44:19.348Z,5.26
2023-03-06T01:45:21.573Z,7.04
2023-03-06T01:46:23.790Z,8.23
2023-03-06T01:47:26.303Z,7.08
2023-03-06T01:48:28.519Z,4.24
2023-03-06T01:49:30.690Z,5.93
2023-03-06T01:50:32.982Z,5.12
2023-03-06T01:51:35.546Z,6.07
2023-03-06T01:52:37.787Z,5.99
2023-03-06T01:53:40.039Z,3.32
2023-03-06T01:54:42.198Z,3.20
2023-03-06T01:55:45.016Z,4.81
2023-03-06T01:56:47.609Z,4.97
2023-03-06T01:57:50.288Z,5.13
2023-03-06T01:58:52.728Z,9.05
2023-03-06T01:59:55.009Z,4.64
2023-03-06T02:00:57.395Z,7.37
2023-03-06T02:01:59.763Z,4.92
2023-03-06T02:03:02.166Z,4.68
2023-03-06T02:04:04.431Z,6.31
2023-03-06T02:05:06.632Z,5.76
2023-03-06T02:06:08.914Z,6.19
2023-03-06T02:07:11.140Z,3.67
2023-03-06T02:08:13.625Z,5.49
2023-03-06T02:09:15.882Z,4.30
2023-03-06T02:10:18.293Z,5.56
2023-03-06T02:11:20.870Z,8.72
2023-03-06T02:12:23.321Z,4.84
2023-03-06T02:13:26.017Z,7.01
2023-03-06T02:14:28.584Z,4.16
2023-03-06T02:15:31.227Z,5.30
2023-03-06T02:16:33.694Z,5.20
2023-03-06T02:17:36.182Z,5.13
2023-03-06T02:18:38.644Z,3.72
2023-03-06T02:19:41.090Z,4.83
2023-03-06T02:20:43.527Z,5.47
2023-03-06T02:21:46.074Z,4.12
2023-03-06T02:22:48.508Z,7.86
2023-03-06T02:23:51.221Z,3.17
2023-03-06T02:24:53.802Z,5.04
2023-03-06T02:25:56.237Z,6.37
2023-03-06T02:26:58.544Z,6.14
2023-03-06T02:28:00.948Z,4.49
2023-03-06T02:29:03.999Z,3.64
2023-03-06T02:30:06.500Z,5.15
2023-03-06T02:31:09.167Z,7.72
2023-03-06T02:32:11.633Z,6.37
2023-03-06T02:33:14.195Z,5.98
2023-03-06T02:34:16.671Z,4.12
2023-03-06T02:35:19.136Z,6.12
2023-03-06T02:36:21.597Z,3.87
2023-03-06T02:37:24.056Z,8.25
2023-03-06T02:38:26.500Z,4.69
2023-03-06T02:39:28.980Z,3.77
2023-03-06T02:40:31.440Z,4.41
2023-03-06T02:41:33.983Z,4.13
2023-03-06T02:42:36.452Z,3.55
2023-03-06T02:43:38.713Z,3.09
2023-03-06T02:44:41.035Z,4.45
2023-03-06T02:45:43.318Z,4.08
2023-03-06T02:46:45.561Z,4.93
2023-03-06T02:47:47.765Z,7.45
2023-03-06T02:48:49.971Z,7.20
2023-03-06T02:49:52.212Z,4.11
2023-03-06T02:50:54.395Z,8.12
2023-03-06T02:51:56.898Z,7.12
2023-03-06T02:52:59.426Z,6.79
2023-03-06T02:54:01.976Z,3.89
2023-03-06T02:55:04.662Z,3.50
2023-03-06T02:56:07.129Z,4.78
2023-03-06T02:57:09.363Z,4.13
2023-03-06T02:58:11.585Z,4.64
2023-03-06T02:59:13.928Z,3.29
2023-03-06T03:00:16.334Z,4.00
2023-03-06T03:01:18.664Z,3.33
2023-03-06T03:02:21.033Z,5.76
2023-03-06T03:03:23.261Z,10.21
2023-03-06T03:04:25.612Z,5.68
2023-03-06T03:05:27.890Z,3.62
2023-03-06T03:06:30.121Z,3.39
2023-03-06T03:07:32.346Z,5.05
2023-03-06T03:08:34.556Z,6.72
2023-03-06T03:09:36.923Z,5.58
2023-03-06T03:10:39.474Z,8.82
2023-03-06T03:11:41.848Z,5.69
2023-03-06T03:12:44.672Z,4.96
2023-03-06T03:13:47.175Z,3.99
2023-03-06T03:14:49.695Z,4.92
2023-03-06T03:15:52.199Z,2.42
2023-03-06T03:16:54.834Z,4.66
2023-03-06T03:17:57.257Z,4.43
2023-03-06T03:18:59.746Z,4.43
2023-03-06T03:20:02.303Z,8.09
2023-03-06T03:21:04.856Z,9.45
2023-03-06T03:22:07.267Z,5.83
2023-03-06T03:23:09.648Z,5.42
2023-03-06T03:24:12.032Z,4.62
2023-03-06T03:25:14.530Z,5.82
2023-03-06T03:26:17.002Z,4.64
2023-03-06T03:27:19.335Z,6.53
2023-03-06T03:28:21.923Z,7.99
2023-03-06T03:29:24.376Z,4.78
2023-03-06T03:30:26.874Z,5.14
2023-03-06T03:31:29.449Z,6.58
2023-03-06T03:32:32.149Z,6.45
2023-03-06T03:33:34.611Z,3.81
2023-03-06T03:34:37.071Z,4.11
2023-03-06T03:35:39.670Z,6.44
2023-03-06T03:36:43.527Z,5.23
2023-03-06T03:37:46.115Z,3.59
2023-03-06T03:38:48.676Z,2.95
2023-03-06T03:39:50.880Z,5.28
2023-03-06T03:40:53.082Z,7.46
2023-03-06T03:41:55.533Z,2.85
2023-03-06T03:42:57.764Z,4.24
2023-03-06T03:43:59.978Z,4.24
2023-03-06T03:45:02.339Z,5.75
2023-03-06T03:46:04.942Z,3.82
2023-03-06T03:47:07.487Z,4.68
2023-03-06T03:48:09.964Z,5.34
2023-03-06T03:49:12.585Z,7.88
2023-03-06T03:50:15.081Z,5.20
2023-03-06T03:51:17.558Z,3.66
2023-03-06T03:52:20.037Z,2.95
2023-03-06T03:53:22.485Z,4.54
2023-03-06T03:54:24.966Z,3.18
2023-03-06T03:55:27.375Z,5.31
2023-03-06T03:56:29.988Z,6.76
2023-03-06T03:57:32.593Z,4.33
2023-03-06T03:58:35.035Z,4.23
2023-03-06T03:59:37.579Z,4.72
2023-03-06T04:00:40.036Z,8.38
2023-03-06T04:01:42.677Z,6.46
2023-03-06T04:02:45.671Z,10.73
2023-03-06T04:03:48.149Z,3.78
2023-03-06T04:04:50.857Z,6.84
2023-03-06T04:05:53.406Z,6.93
2023-03-06T04:06:55.876Z,8.76
2023-03-06T04:07:58.560Z,4.82
2023-03-06T04:09:01.053Z,4.08
2023-03-06T04:10:03.575Z,4.58
2023-03-06T04:11:06.021Z,5.46
2023-03-06T04:12:08.760Z,3.91
2023-03-06T04:13:11.424Z,4.57
2023-03-06T04:14:13.886Z,4.78
2023-03-06T04:15:16.148Z,8.35
2023-03-06T04:16:18.308Z,4.83
2023-03-06T04:17:20.671Z,4.33
2023-03-06T04:18:23.015Z,4.23
2023-03-06T04:19:25.254Z,5.20
2023-03-06T04:20:27.476Z,4.28
2023-03-06T04:21:29.692Z,4.83
2023-03-06T04:22:31.910Z,4.37
2023-03-06T04:23:34.211Z,4.17
2023-03-06T04:24:36.427Z,3.27
2023-03-06T04:25:38.781Z,5.18
2023-03-06T04:26:41.014Z,4.50
2023-03-06T04:27:43.308Z,4.27
2023-03-06T04:28:45.707Z,4.38
2023-03-06T04:29:47.965Z,4.24
2023-03-06T04:30:50.430Z,3.65
2023-03-06T04:31:53.140Z,2.61
2023-03-06T04:32:55.592Z,4.52
2023-03-06T04:33:58.135Z,3.11
2023-03-06T04:35:00.759Z,7.40
2023-03-06T04:36:03.278Z,5.03
2023-03-06T04:37:05.757Z,7.98
2023-03-06T04:38:08.274Z,4.29
2023-03-06T04:39:10.733Z,6.27
2023-03-06T04:40:13.323Z,7.03
2023-03-06T04:41:15.906Z,4.81
2023-03-06T04:42:18.625Z,7.92
2023-03-06T04:43:21.214Z,4.81
2023-03-06T04:44:23.686Z,3.29
2023-03-06T04:45:26.144Z,4.58
2023-03-06T04:46:28.610Z,7.94
2023-03-06T04:47:31.080Z,8.33
2023-03-06T04:48:33.600Z,5.07
2023-03-06T04:49:36.078Z,4.61
2023-03-06T04:50:38.558Z,9.99
2023-03-06T04:51:41.084Z,30.32
2023-03-06T04:52:43.548Z,9.65
2023-03-06T04:53:46.168Z,2.92
2023-03-06T04:54:48.940Z,5.55
2023-03-06T04:55:51.479Z,9.01
2023-03-06T04:56:53.906Z,4.95
2023-03-06T04:57:56.159Z,4.07
2023-03-06T04:58:58.434Z,9.96
2023-03-06T05:00:00.878Z,5.45
2023-03-06T05:01:03.333Z,7.53
2023-03-06T05:02:05.647Z,6.09
2023-03-06T05:03:07.896Z,4.65
2023-03-06T05:04:10.374Z,4.06
2023-03-06T05:05:12.871Z,4.46
2023-03-06T05:06:15.336Z,4.55
2023-03-06T05:07:17.906Z,5.40
2023-03-06T05:08:20.385Z,8.90
2023-03-06T05:09:23.028Z,12.58
2023-03-06T05:10:25.939Z,11.17
2023-03-06T05:11:28.396Z,7.43
2023-03-06T05:12:30.932Z,6.92
2023-03-06T05:13:33.565Z,7.30
2023-03-06T05:14:35.997Z,6.37
2023-03-06T05:15:38.933Z,5.34
2023-03-06T05:16:41.440Z,4.19
2023-03-06T05:17:44.054Z,5.12
2023-03-06T05:18:48.913Z,9.08
2023-03-06T05:19:50.757Z,9.59
2023-03-06T05:20:53.523Z,24.12
2023-03-06T05:21:55.965Z,9.15
2023-03-06T05:22:58.431Z,8.72
2023-03-06T05:24:01.037Z,6.78
2023-03-06T05:25:03.598Z,6.66
2023-03-06T05:26:06.033Z,18.09
2023-03-06T05:27:08.368Z,8.62
2023-03-06T05:28:10.881Z,4.25
2023-03-06T05:29:13.028Z,5.83
2023-03-06T05:30:15.533Z,15.98
2023-03-06T05:31:18.263Z,8.27
2023-03-06T05:32:20.787Z,5.01
2023-03-06T05:33:23.247Z,2.17
2023-03-06T05:34:25.757Z,5.35
2023-03-06T05:35:28.088Z,3.77
2023-03-06T05:36:30.577Z,9.11
2023-03-06T05:37:32.752Z,18.48
2023-03-06T05:38:35.171Z,4.35
2023-03-06T05:39:37.414Z,11.22
2023-03-06T05:40:39.700Z,58.98
2023-03-06T05:41:42.176Z,129.88
2023-03-06T05:42:44.508Z,99.18
2023-03-06T05:43:46.898Z,37.52
2023-03-06T05:44:49.256Z,89.09
2023-03-06T05:45:51.743Z,74.53
2023-03-06T05:46:54.046Z,48.22
2023-03-06T05:47:56.226Z,31.42
2023-03-06T05:48:58.538Z,3.02
2023-03-06T05:50:00.931Z,8.43
2023-03-06T05:51:03.236Z,13.11
2023-03-06T05:52:05.710Z,7.72
2023-03-06T05:53:08.178Z,6.46
2023-03-06T05:54:10.632Z,10.51
2023-03-06T05:55:13.123Z,6.17
2023-03-06T05:56:15.652Z,6.08
2023-03-06T05:57:18.320Z,4.81
2023-03-06T05:58:20.701Z,6.18
2023-03-06T05:59:23.169Z,6.36
2023-03-06T06:00:25.586Z,6.24
2023-03-06T06:01:28.124Z,6.32
2023-03-06T06:02:30.663Z,9.97
2023-03-06T06:03:33.262Z,7.65
2023-03-06T06:04:35.717Z,5.86
2023-03-06T06:05:38.299Z,7.02
2023-03-06T06:06:40.928Z,3.20
2023-03-06T06:07:44.815Z,2.54
2023-03-06T06:08:47.418Z,5.08
2023-03-06T06:09:49.716Z,37.32
2023-03-06T06:10:53.453Z,7.15
2023-03-06T06:11:56.333Z,8.27
2023-03-06T06:12:58.790Z,4.76
2023-03-06T06:14:01.474Z,7.97
2023-03-06T06:15:04.093Z,6.42
2023-03-06T06:16:06.635Z,17.14
2023-03-06T06:17:09.151Z,51.42
2023-03-06T06:18:11.755Z,9.31
2023-03-06T06:19:14.357Z,5.92
2023-03-06T06:20:16.947Z,5.95
2023-03-06T06:21:19.345Z,6.51
2023-03-06T06:22:21.795Z,4.94
2023-03-06T06:23:24.766Z,8.83
2023-03-06T06:24:27.171Z,4.20
2023-03-06T06:25:29.397Z,2.88
2023-03-06T06:26:31.640Z,4.49
2023-03-06T06:27:33.927Z,2.75
2023-03-06T06:28:36.195Z,4.86
2023-03-06T06:29:38.532Z,5.38
2023-03-06T06:30:40.736Z,3.95
2023-03-06T06:31:42.960Z,7.94
2023-03-06T06:32:45.160Z,4.00
2023-03-06T06:33:48.094Z,2.33
2023-03-06T06:34:50.610Z,5.92
2023-03-06T06:35:53.286Z,4.73
2023-03-06T06:36:55.820Z,5.38
2023-03-06T06:37:58.305Z,3.95
2023-03-06T06:39:01.220Z,8.89
2023-03-06T06:40:03.838Z,11.98
2023-03-06T06:41:35.730Z,3.57
2023-03-06T06:42:30.221Z,3.66
2023-03-06T06:43:14.260Z,3.89
2023-03-06T06:44:16.993Z,3.32
2023-03-06T06:45:19.478Z,3.55
2023-03-06T06:47:05.815Z,3.97
2023-03-06T06:47:26.166Z,3.78
2023-03-06T06:48:28.601Z,2.79
2023-03-06T06:49:31.070Z,11.75
2023-03-06T06:50:33.262Z,13.91
2023-03-06T06:51:35.781Z,4.89
2023-03-06T06:52:38.237Z,5.99
2023-03-06T06:53:40.694Z,3.02
2023-03-06T06:54:43.187Z,7.33
2023-03-06T06:55:45.668Z,10.35
2023-03-06T06:56:48.141Z,2.60
2023-03-06T06:57:50.673Z,3.54
2023-03-06T06:58:53.129Z,16.02
2023-03-06T06:59:55.813Z,44.17
2023-03-06T07:00:58.241Z,22.16
2023-03-06T07:02:00.615Z,22.40
2023-03-06T07:03:02.826Z,7.45
2023-03-06T07:04:05.168Z,44.98
2023-03-06T07:05:07.417Z,43.28
2023-03-06T07:06:09.570Z,46.14
2023-03-06T07:07:12.000Z,61.50
2023-03-06T07:08:14.188Z,47.64
2023-03-06T07:09:16.384Z,41.72
2023-03-06T07:10:20.064Z,53.24
2023-03-06T07:11:22.627Z,41.41
2023-03-06T07:12:25.118Z,6.40
2023-03-06T07:13:27.549Z,8.81
2023-03-06T07:14:30.213Z,3.17
2023-03-06T07:15:32.768Z,2.08
2023-03-06T07:16:35.016Z,2.54
2023-03-06T07:17:37.303Z,3.31
2023-03-06T07:18:39.787Z,3.22
2023-03-06T07:19:42.187Z,2.64
2023-03-06T07:20:44.687Z,2.05
2023-03-06T07:21:47.479Z,3.48
2023-03-06T07:22:51.828Z,3.35
2023-03-06T07:23:53.968Z,4.75
2023-03-06T07:24:56.504Z,6.55
2023-03-06T07:25:58.970Z,4.41
2023-03-06T07:27:01.547Z,3.39
2023-03-06T07:28:04.095Z,2.54
2023-03-06T07:29:06.641Z,4.02
2023-03-06T07:30:09.093Z,4.71
2023-03-06T07:31:11.630Z,3.98
2023-03-06T07:32:14.203Z,3.62
2023-03-06T07:33:16.675Z,5.87
2023-03-06T07:34:19.156Z,4.46
2023-03-06T07:35:21.640Z,4.86
2023-03-06T07:36:24.239Z,5.05
2023-03-06T07:37:26.720Z,4.63
2023-03-06T07:38:29.143Z,4.77
2023-03-06T07:39:31.734Z,3.52
2023-03-06T07:40:34.199Z,6.74
2023-03-06T07:41:36.897Z,3.65
2023-03-06T07:42:39.383Z,2.65
2023-03-06T07:43:41.784Z,3.92
2023-03-06T07:44:44.293Z,4.24
2023-03-06T07:45:46.793Z,3.42
2023-03-06T07:46:49.703Z,3.49
2023-03-06T07:47:52.073Z,4.10
2023-03-06T07:48:54.502Z,5.92
2023-03-06T07:49:57.018Z,6.42
2023-03-06T07:50:59.480Z,7.87
2023-03-06T07:52:02.105Z,8.07
2023-03-06T07:53:04.737Z,6.75
2023-03-06T07:54:06.981Z,11.46
2023-03-06T07:55:09.422Z,9.36
2023-03-06T07:56:11.862Z,9.96
2023-03-06T07:57:14.831Z,11.07
2023-03-06T07:58:17.327Z,8.60
2023-03-06T07:59:19.778Z,9.68
2023-03-06T08:00:22.378Z,12.33
2023-03-06T08:01:25.056Z,12.17
2023-03-06T08:02:27.931Z,10.05
2023-03-06T08:03:30.472Z,10.41
2023-03-06T08:04:32.874Z,10.92
2023-03-06T08:05:35.292Z,10.72
2023-03-06T08:06:37.481Z,9.27
2023-03-06T08:07:39.885Z,12.05
2023-03-06T08:08:42.124Z,9.54
2023-03-06T08:09:44.338Z,13.49
2023-03-06T08:10:46.619Z,10.15
2023-03-06T08:11:48.807Z,8.83
2023-03-06T08:12:51.111Z,9.06
2023-03-06T08:13:53.304Z,8.22
2023-03-06T08:14:55.578Z,10.10
2023-03-06T08:15:58.337Z,10.56
2023-03-06T08:17:00.765Z,10.30
2023-03-06T08:18:03.441Z,9.87
2023-03-06T08:19:05.824Z,11.83
2023-03-06T08:20:08.258Z,10.69
2023-03-06T08:21:10.744Z,12.50
2023-03-06T08:22:13.183Z,12.08
2023-03-06T08:23:15.941Z,11.05
2023-03-06T08:24:18.178Z,14.25
2023-03-06T08:25:20.449Z,12.98
2023-03-06T08:26:22.635Z,14.43
2023-03-06T08:27:24.884Z,13.56
2023-03-06T08:28:27.318Z,11.86
2023-03-06T08:29:31.028Z,21.55
2023-03-06T08:30:33.370Z,15.54
2023-03-06T08:31:35.642Z,13.38
2023-03-06T08:32:38.047Z,16.25
2023-03-06T08:33:40.617Z,15.25
2023-03-06T08:34:43.343Z,16.33
2023-03-06T08:35:46.066Z,16.58
2023-03-06T08:36:48.522Z,14.14
2023-03-06T08:37:50.997Z,13.62
2023-03-06T08:38:53.529Z,12.69
2023-03-06T08:39:56.024Z,16.03
2023-03-06T08:40:58.455Z,15.84
2023-03-06T08:42:00.997Z,14.77
2023-03-06T08:43:03.496Z,14.35
2023-03-06T08:44:06.228Z,18.59
2023-03-06T08:45:08.698Z,15.68
2023-03-06T08:46:11.096Z,14.92
2023-03-06T08:47:13.595Z,16.38
2023-03-06T08:48:16.059Z,19.52
2023-03-06T08:49:18.686Z,14.87
2023-03-06T08:50:21.147Z,17.85
2023-03-06T08:51:23.592Z,12.98
2023-03-06T08:52:26.054Z,16.74
2023-03-06T08:53:42.067Z,17.42
2023-03-06T08:54:32.632Z,18.22
2023-03-06T08:55:34.898Z,18.52
2023-03-06T08:56:37.399Z,16.56
2023-03-06T08:57:39.621Z,17.78
2023-03-06T08:58:41.880Z,16.98
2023-03-06T08:59:44.145Z,18.17
2023-03-06T09:00:46.553Z,22.50
2023-03-06T09:01:48.921Z,15.15
2023-03-06T09:02:51.118Z,15.10
2023-03-06T09:03:53.348Z,15.89
2023-03-06T09:04:55.600Z,17.72
2023-03-06T09:05:57.755Z,18.26
2023-03-06T09:07:00.179Z,19.24
2023-03-06T09:08:02.587Z,18.82
2023-03-06T09:09:04.998Z,18.33
2023-03-06T09:10:07.462Z,17.05
2023-03-06T09:11:09.981Z,20.06
2023-03-06T09:12:12.414Z,20.73
2023-03-06T09:13:14.915Z,18.36
2023-03-06T09:14:17.392Z,15.91
2023-03-06T09:15:19.904Z,18.82
2023-03-06T09:16:22.725Z,17.17
2023-03-06T09:17:25.474Z,17.45
2023-03-06T09:18:27.931Z,18.10
2023-03-06T09:19:30.593Z,20.85
2023-03-06T09:20:33.283Z,18.09
2023-03-06T09:21:35.804Z,17.98
2023-03-06T09:22:38.263Z,21.65
2023-03-06T09:23:40.671Z,20.82
2023-03-06T09:24:43.058Z,21.65
2023-03-06T09:25:45.812Z,18.48
2023-03-06T09:26:50.528Z,19.05
2023-03-06T09:28:08.775Z,20.95
2023-03-06T09:28:56.412Z,21.43
2023-03-06T09:29:58.861Z,18.32
2023-03-06T09:31:01.391Z,17.80
2023-03-06T09:32:03.900Z,20.49
2023-03-06T09:33:06.294Z,16.55
2023-03-06T09:34:08.520Z,23.67
2023-03-06T09:35:10.757Z,18.98
2023-03-06T09:36:13.040Z,21.68
2023-03-06T09:37:16.300Z,24.74
2023-03-06T09:38:18.791Z,25.04
2023-03-06T09:39:20.996Z,25.16
2023-03-06T09:40:23.245Z,23.82
2023-03-06T09:41:25.553Z,22.84
2023-03-06T09:42:27.776Z,20.52
2023-03-06T09:43:29.955Z,25.68
2023-03-06T09:44:32.104Z,25.70
2023-03-06T09:45:34.584Z,23.62
2023-03-06T09:46:37.496Z,22.36
2023-03-06T09:47:39.951Z,24.17
2023-03-06T09:48:42.385Z,29.13
2023-03-06T09:49:44.781Z,22.48
2023-03-06T09:50:46.982Z,21.52
2023-03-06T09:51:49.216Z,21.81
2023-03-06T09:52:51.421Z,22.83
2023-03-06T09:53:53.713Z,23.87
2023-03-06T09:54:55.916Z,22.13
2023-03-06T09:55:58.126Z,23.53
2023-03-06T09:57:00.518Z,28.35
2023-03-06T09:58:02.734Z,31.84
2023-03-06T09:59:05.190Z,33.67
2023-03-06T10:00:07.655Z,29.97
2023-03-06T10:01:10.042Z,24.27
2023-03-06T10:02:13.376Z,31.26
2023-03-06T10:03:16.180Z,31.62
2023-03-06T10:04:18.648Z,29.63
2023-03-06T10:05:21.286Z,23.67
2023-03-06T10:06:23.734Z,28.08
2023-03-06T10:07:26.253Z,22.22
2023-03-06T10:08:28.695Z,23.10
2023-03-06T10:09:31.200Z,26.12
2023-03-06T10:10:33.601Z,25.62
2023-03-06T10:11:36.062Z,29.95
2023-03-06T10:12:38.574Z,25.33
2023-03-06T10:13:40.831Z,15.81
2023-03-06T10:14:43.539Z,22.05
2023-03-06T10:15:46.056Z,18.35
2023-03-06T10:16:48.486Z,19.68
2023-03-06T10:17:50.917Z,20.17
2023-03-06T10:18:53.377Z,19.45
2023-03-06T10:19:55.834Z,17.61
2023-03-06T10:21:00.929Z,17.83
2023-03-06T10:22:02.214Z,17.21
2023-03-06T10:23:05.412Z,17.48
2023-03-06T10:24:08.016Z,18.95
2023-03-06T10:25:10.511Z,20.68
2023-03-06T10:26:13.026Z,21.24
2023-03-06T10:27:15.529Z,19.18
2023-03-06T10:28:18.288Z,13.39
2023-03-06T10:29:23.533Z,14.85
2023-03-06T10:30:26.623Z,18.48
2023-03-06T10:31:29.267Z,17.10
2023-03-06T10:32:46.257Z,17.82
2023-03-06T10:33:36.221Z,19.99
2023-03-06T10:34:38.801Z,21.38
2023-03-06T10:35:41.226Z,18.37
2023-03-06T10:36:43.726Z,19.25
2023-03-06T10:37:46.269Z,15.33
2023-03-06T10:38:49.046Z,15.43
2023-03-06T10:39:51.607Z,16.53
2023-03-06T10:40:54.148Z,15.52
2023-03-06T10:41:56.636Z,18.61
2023-03-06T10:43:11.111Z,16.68
2023-03-06T10:44:03.572Z,18.69
2023-03-06T10:45:06.303Z,16.92
2023-03-06T10:46:08.921Z,16.81
2023-03-06T10:47:11.405Z,18.79
2023-03-06T10:48:13.856Z,25.80
2023-03-06T10:49:16.850Z,22.92
2023-03-06T10:50:19.337Z,23.14
2023-03-06T10:51:21.608Z,24.75
2023-03-06T10:52:24.141Z,19.98
2023-03-06T10:53:26.577Z,22.18
2023-03-06T10:54:30.269Z,20.53
2023-03-06T10:55:32.744Z,19.69
2023-03-06T10:56:34.952Z,20.84
2023-03-06T10:57:37.184Z,24.82
2023-03-06T10:58:39.406Z,24.91
2023-03-06T10:59:41.605Z,23.68
2023-03-06T11:00:43.814Z,26.97
2023-03-06T11:01:46.063Z,26.10
2023-03-06T11:02:48.312Z,27.90
2023-03-06T11:03:50.454Z,22.94
2023-03-06T11:04:52.742Z,24.06
2023-03-06T11:05:54.998Z,19.89
2023-03-06T11:06:57.196Z,21.43
2023-03-06T11:07:59.353Z,19.67
2023-03-06T11:09:01.539Z,19.61
2023-03-06T11:10:04.407Z,20.34
2023-03-06T11:11:06.834Z,21.46
2023-03-06T11:12:09.239Z,20.87
2023-03-06T11:13:11.711Z,20.62
2023-03-06T11:14:14.145Z,19.58
2023-03-06T11:15:16.406Z,20.61
2023-03-06T11:16:18.868Z,17.98
2023-03-06T11:17:21.339Z,18.07
2023-03-06T11:18:23.744Z,19.92
2023-03-06T11:19:26.320Z,19.50
2023-03-06T11:20:31.777Z,20.62
2023-03-06T11:21:32.834Z,19.81
2023-03-06T11:22:35.354Z,15.74
2023-03-06T11:23:37.787Z,22.12
2023-03-06T11:24:48.952Z,22.92
2023-03-06T11:25:52.165Z,19.33
2023-03-06T11:26:54.808Z,27.06
2023-03-06T11:27:58.172Z,28.57
2023-03-06T11:29:01.306Z,30.34
2023-03-06T11:30:04.137Z,28.95
2023-03-06T11:31:07.434Z,30.98
2023-03-06T11:32:10.451Z,34.39
2023-03-06T11:33:13.077Z,34.48
2023-03-06T11:34:15.844Z,34.57
2023-03-06T11:35:18.518Z,34.33
2023-03-06T11:36:21.311Z,34.63
2023-03-06T11:37:24.064Z,38.98
2023-03-06T11:38:26.626Z,36.58
2023-03-06T11:39:29.312Z,33.84
2023-03-06T11:40:32.169Z,43.19
2023-03-06T11:41:35.158Z,42.32
2023-03-06T11:42:37.919Z,47.35
2023-03-06T11:43:40.591Z,41.73
2023-03-06T11:44:43.200Z,40.08
2023-03-06T11:45:45.720Z,39.81
2023-03-06T11:46:48.301Z,45.18
2023-03-06T11:47:51.281Z,40.26
2023-03-06T11:48:54.134Z,37.86
2023-03-06T11:49:57.040Z,42.18
2023-03-06T11:51:00.004Z,43.12
2023-03-06T11:52:02.774Z,33.42
2023-03-06T11:53:05.632Z,35.48
2023-03-06T11:54:08.822Z,33.48
2023-03-06T11:55:12.196Z,35.84
2023-03-06T11:56:15.206Z,36.73
2023-03-06T11:57:17.774Z,31.33
2023-03-06T11:58:20.427Z,34.87
2023-03-06T11:59:23.202Z,34.65
2023-03-06T12:00:26.097Z,33.75
2023-03-06T12:01:28.962Z,36.11
2023-03-06T12:02:31.939Z,33.64
2023-03-06T12:03:34.908Z,33.22
2023-03-06T12:04:38.084Z,33.11
2023-03-06T12:05:40.944Z,28.82
2023-03-06T12:06:43.746Z,32.70
2023-03-06T12:07:47.326Z,43.67
2023-03-06T12:08:50.802Z,32.91
2023-03-06T12:09:53.897Z,34.64
2023-03-06T12:10:56.578Z,39.15
2023-03-06T12:11:59.135Z,38.00
2023-03-06T12:13:02.004Z,42.52
2023-03-06T12:14:04.866Z,39.81
2023-03-06T12:15:07.541Z,36.26
2023-03-06T12:16:10.502Z,40.43
2023-03-06T12:17:13.200Z,42.13
2023-03-06T12:18:15.756Z,41.82
2023-03-06T12:19:18.737Z,40.87
2023-03-06T12:20:21.305Z,40.55
2023-03-06T12:21:24.087Z,42.08
2023-03-06T12:22:26.749Z,49.11
2023-03-06T12:23:29.418Z,50.38
2023-03-06T12:24:32.216Z,44.12
2023-03-06T12:25:34.869Z,41.72
2023-03-06T12:26:37.652Z,50.80
2023-03-06T12:27:40.203Z,52.51
2023-03-06T12:28:46.306Z,42.75
2023-03-06T12:29:48.521Z,48.34
2023-03-06T12:30:51.377Z,50.11
2023-03-06T12:31:54.359Z,49.83
2023-03-06T12:32:56.945Z,48.28
2023-03-06T12:33:59.799Z,52.71
2023-03-06T12:35:04.779Z,45.98
2023-03-06T12:36:06.677Z,48.68
2023-03-06T12:37:09.547Z,50.77
2023-03-06T12:38:12.218Z,46.25
2023-03-06T12:39:14.891Z,49.60
2023-03-06T12:40:17.705Z,44.71
2023-03-06T12:41:20.540Z,46.25
2023-03-06T12:42:23.870Z,54.55
2023-03-06T12:43:26.597Z,43.35
2023-03-06T12:44:29.274Z,46.65
2023-03-06T12:45:31.832Z,46.01
2023-03-06T12:46:34.729Z,45.69
2023-03-06T12:47:37.584Z,43.11
2023-03-06T12:48:40.663Z,45.26
2023-03-06T12:49:43.328Z,49.52
2023-03-06T12:50:45.998Z,42.11
2023-03-06T12:51:48.570Z,49.10
2023-03-06T12:52:51.559Z,54.40
2023-03-06T12:53:54.638Z,44.28
2023-03-06T12:54:57.306Z,46.54
2023-03-06T12:55:59.974Z,48.65
2023-03-06T12:57:02.674Z,43.08
2023-03-06T12:58:05.501Z,42.94
2023-03-06T12:59:09.004Z,43.45
2023-03-06T13:00:12.181Z,46.28
2023-03-06T13:01:15.096Z,40.68
2023-03-06T13:02:18.424Z,40.61
2023-03-06T13:03:21.219Z,45.01
2023-03-06T13:04:24.110Z,41.24
2023-03-06T13:05:26.960Z,45.40
2023-03-06T13:06:30.947Z,44.51
2023-03-06T13:07:33.777Z,40.79
2023-03-06T13:08:36.415Z,44.31
2023-03-06T13:09:39.083Z,48.48
2023-03-06T13:10:41.853Z,52.09
2023-03-06T13:11:44.973Z,51.78
2023-03-06T13:12:47.635Z,49.62
2023-03-06T13:13:50.183Z,45.54
2023-03-06T13:14:54.777Z,52.95
2023-03-06T13:15:57.066Z,46.20
2023-03-06T13:16:59.750Z,45.74
2023-03-06T13:18:02.756Z,39.17
2023-03-06T13:19:05.681Z,39.36
2023-03-06T13:20:08.460Z,44.37
2023-03-06T13:21:11.026Z,44.32
2023-03-06T13:22:13.785Z,41.83
2023-03-06T13:23:17.170Z,45.79
2023-03-06T13:24:19.961Z,46.78
2023-03-06T13:25:22.725Z,36.05
2023-03-06T13:26:25.306Z,40.42
2023-03-06T13:27:28.366Z,44.35
2023-03-06T13:28:30.961Z,43.78
2023-03-06T13:29:33.841Z,45.35
2023-03-06T13:30:36.732Z,49.12
2023-03-06T13:31:39.809Z,48.35
2023-03-06T13:32:42.322Z,44.89
2023-03-06T13:33:45.508Z,46.32
2023-03-06T13:34:48.168Z,45.10
2023-03-06T13:35:51.091Z,50.35
2023-03-06T13:36:53.624Z,41.58
2023-03-06T13:37:56.184Z,42.62
2023-03-06T13:38:58.987Z,35.83
2023-03-06T13:40:01.734Z,43.70